sensor_id;sensor_type;location;lat;lon;timestamp;P1;durP1;ratioP1;P2;durP2;ratioP2
40757;SDS011;26462;47.384;19.218;2023-12-04T00:01:46;32.55;;;11.63;;
40757;SDS011;26462;47.384;19.218;2023-12-04T00:04:16;36.17;;;12.43;;
40757;SDS011;26462;47.384;19.218;2023-12-04T00:06:45;48.05;;;12.20;;
40757;SDS011;26462;47.384;19.218;2023-12-04T00:09:14;55.22;;;15.63;;
40757;SDS011;26462;47.384;19.218;2023-12-04T00:11:43;52.13;;;16.27;;
40757;SDS011;26462;47.384;19.218;2023-12-04T00:14:12;73.55;;;23.88;;
40757;SDS011;26462;47.384;19.218;2023-12-04T00:16:40;72.05;;;23.10;;
40757;SDS011;26462;47.384;19.218;2023-12-04T00:19:09;44.92;;;17.70;;
40757;SDS011;26462;47.384;19.218;2023-12-04T00:21:39;53.38;;;18.95;;
40757;SDS011;26462;47.384;19.218;2023-12-04T00:24:08;39.53;;;14.77;;
40757;SDS011;26462;47.384;19.218;2023-12-04T00:26:37;37.42;;;12.80;;
40757;SDS011;26462;47.384;19.218;2023-12-04T00:29:05;30.58;;;10.32;;
40757;SDS011;26462;47.384;19.218;2023-12-04T00:31:34;26.13;;;9.40;;
40757;SDS011;26462;47.384;19.218;2023-12-04T00:34:03;30.58;;;10.70;;
40757;SDS011;26462;47.384;19.218;2023-12-04T00:36:32;25.50;;;10.73;;
40757;SDS011;26462;47.384;19.218;2023-12-04T00:39:02;35.88;;;12.25;;
40757;SDS011;26462;47.384;19.218;2023-12-04T00:41:32;51.45;;;15.57;;
40757;SDS011;26462;47.384;19.218;2023-12-04T00:44:02;43.83;;;15.13;;
40757;SDS011;26462;47.384;19.218;2023-12-04T00:46:31;34.05;;;14.20;;
40757;SDS011;26462;47.384;19.218;2023-12-04T00:49:00;29.98;;;11.02;;
40757;SDS011;26462;47.384;19.218;2023-12-04T00:51:29;22.45;;;9.07;;
40757;SDS011;26462;47.384;19.218;2023-12-04T00:53:57;25.92;;;8.38;;
40757;SDS011;26462;47.384;19.218;2023-12-04T00:56:27;22.70;;;7.35;;
40757;SDS011;26462;47.384;19.218;2023-12-04T00:58:57;30.10;;;9.65;;
40757;SDS011;26462;47.384;19.218;2023-12-04T01:01:25;27.77;;;10.70;;
40757;SDS011;26462;47.384;19.218;2023-12-04T01:03:54;27.00;;;10.05;;
40757;SDS011;26462;47.384;19.218;2023-12-04T01:06:23;26.98;;;9.48;;
40757;SDS011;26462;47.384;19.218;2023-12-04T01:08:52;25.50;;;9.07;;
40757;SDS011;26462;47.384;19.218;2023-12-04T01:11:20;25.02;;;9.70;;
40757;SDS011;26462;47.384;19.218;2023-12-04T01:13:50;27.48;;;9.60;;
40757;SDS011;26462;47.384;19.218;2023-12-04T01:16:19;23.38;;;9.00;;
40757;SDS011;26462;47.384;19.218;2023-12-04T01:18:48;24.38;;;9.60;;
40757;SDS011;26462;47.384;19.218;2023-12-04T01:21:16;26.00;;;9.68;;
40757;SDS011;26462;47.384;19.218;2023-12-04T01:23:45;24.27;;;9.82;;
40757;SDS011;26462;47.384;19.218;2023-12-04T01:26:14;24.70;;;9.45;;
40757;SDS011;26462;47.384;19.218;2023-12-04T01:28:43;32.15;;;11.20;;
40757;SDS011;26462;47.384;19.218;2023-12-04T01:31:13;26.08;;;9.35;;
40757;SDS011;26462;47.384;19.218;2023-12-04T01:33:41;28.02;;;10.00;;
40757;SDS011;26462;47.384;19.218;2023-12-04T01:36:10;35.75;;;11.95;;
40757;SDS011;26462;47.384;19.218;2023-12-04T01:38:39;49.33;;;15.85;;
40757;SDS011;26462;47.384;19.218;2023-12-04T01:41:07;60.90;;;18.60;;
40757;SDS011;26462;47.384;19.218;2023-12-04T01:43:36;43.70;;;15.73;;
40757;SDS011;26462;47.384;19.218;2023-12-04T01:46:05;47.05;;;15.57;;
40757;SDS011;26462;47.384;19.218;2023-12-04T01:48:36;34.30;;;12.18;;
40757;SDS011;26462;47.384;19.218;2023-12-04T01:51:06;30.13;;;11.70;;
40757;SDS011;26462;47.384;19.218;2023-12-04T01:53:36;34.13;;;11.45;;
40757;SDS011;26462;47.384;19.218;2023-12-04T01:56:07;31.02;;;10.60;;
40757;SDS011;26462;47.384;19.218;2023-12-04T01:58:37;29.15;;;10.55;;
40757;SDS011;26462;47.384;19.218;2023-12-04T02:01:06;25.20;;;9.02;;
40757;SDS011;26462;47.384;19.218;2023-12-04T02:03:34;24.75;;;8.50;;
40757;SDS011;26462;47.384;19.218;2023-12-04T02:06:06;23.88;;;8.15;;
40757;SDS011;26462;47.384;19.218;2023-12-04T02:08:35;26.25;;;9.27;;
40757;SDS011;26462;47.384;19.218;2023-12-04T02:11:04;27.23;;;9.55;;
40757;SDS011;26462;47.384;19.218;2023-12-04T02:13:33;28.27;;;11.13;;
40757;SDS011;26462;47.384;19.218;2023-12-04T02:16:02;27.92;;;9.63;;
40757;SDS011;26462;47.384;19.218;2023-12-04T02:18:33;23.80;;;8.70;;
40757;SDS011;26462;47.384;19.218;2023-12-04T02:21:02;23.52;;;8.48;;
40757;SDS011;26462;47.384;19.218;2023-12-04T02:23:33;19.52;;;8.00;;
40757;SDS011;26462;47.384;19.218;2023-12-04T02:26:05;23.38;;;9.23;;
40757;SDS011;26462;47.384;19.218;2023-12-04T02:28:37;25.30;;;8.52;;
40757;SDS011;26462;47.384;19.218;2023-12-04T02:31:06;24.80;;;8.60;;
40757;SDS011;26462;47.384;19.218;2023-12-04T02:33:36;20.88;;;7.47;;
40757;SDS011;26462;47.384;19.218;2023-12-04T02:36:05;22.27;;;7.47;;
40757;SDS011;26462;47.384;19.218;2023-12-04T02:38:34;23.60;;;8.25;;
40757;SDS011;26462;47.384;19.218;2023-12-04T02:41:04;25.17;;;9.45;;
40757;SDS011;26462;47.384;19.218;2023-12-04T02:43:33;22.83;;;8.18;;
40757;SDS011;26462;47.384;19.218;2023-12-04T02:46:03;21.38;;;8.23;;
40757;SDS011;26462;47.384;19.218;2023-12-04T02:48:32;23.60;;;8.65;;
40757;SDS011;26462;47.384;19.218;2023-12-04T02:51:01;20.85;;;7.63;;
40757;SDS011;26462;47.384;19.218;2023-12-04T02:53:30;20.42;;;8.15;;
40757;SDS011;26462;47.384;19.218;2023-12-04T02:55:59;21.70;;;8.50;;
40757;SDS011;26462;47.384;19.218;2023-12-04T02:58:29;29.02;;;10.07;;
40757;SDS011;26462;47.384;19.218;2023-12-04T03:01:00;32.10;;;10.65;;
40757;SDS011;26462;47.384;19.218;2023-12-04T03:03:29;23.45;;;9.57;;
40757;SDS011;26462;47.384;19.218;2023-12-04T03:05:58;20.27;;;8.93;;
40757;SDS011;26462;47.384;19.218;2023-12-04T03:08:27;27.70;;;9.73;;
40757;SDS011;26462;47.384;19.218;2023-12-04T03:10:55;34.33;;;11.25;;
40757;SDS011;26462;47.384;19.218;2023-12-04T03:13:24;29.75;;;10.65;;
40757;SDS011;26462;47.384;19.218;2023-12-04T03:15:54;29.92;;;9.98;;
40757;SDS011;26462;47.384;19.218;2023-12-04T03:18:23;32.45;;;10.82;;
40757;SDS011;26462;47.384;19.218;2023-12-04T03:20:53;31.08;;;11.18;;
40757;SDS011;26462;47.384;19.218;2023-12-04T03:23:21;27.58;;;9.80;;
40757;SDS011;26462;47.384;19.218;2023-12-04T03:25:50;24.52;;;9.57;;
40757;SDS011;26462;47.384;19.218;2023-12-04T03:28:19;32.90;;;11.15;;
40757;SDS011;26462;47.384;19.218;2023-12-04T03:30:48;28.65;;;10.40;;
40757;SDS011;26462;47.384;19.218;2023-12-04T03:33:18;31.35;;;11.23;;
40757;SDS011;26462;47.384;19.218;2023-12-04T03:35:47;26.20;;;10.63;;
40757;SDS011;26462;47.384;19.218;2023-12-04T03:38:15;32.58;;;11.80;;
40757;SDS011;26462;47.384;19.218;2023-12-04T03:40:44;38.47;;;13.98;;
40757;SDS011;26462;47.384;19.218;2023-12-04T03:43:13;35.75;;;14.93;;
40757;SDS011;26462;47.384;19.218;2023-12-04T03:45:41;33.45;;;14.57;;
40757;SDS011;26462;47.384;19.218;2023-12-04T03:48:10;25.48;;;9.88;;
40757;SDS011;26462;47.384;19.218;2023-12-04T03:50:40;27.25;;;8.60;;
40757;SDS011;26462;47.384;19.218;2023-12-04T03:53:09;23.73;;;9.18;;
40757;SDS011;26462;47.384;19.218;2023-12-04T03:55:38;26.40;;;9.25;;
40757;SDS011;26462;47.384;19.218;2023-12-04T03:58:06;22.35;;;8.82;;
40757;SDS011;26462;47.384;19.218;2023-12-04T04:00:35;22.90;;;8.50;;
40757;SDS011;26462;47.384;19.218;2023-12-04T04:05:36;20.23;;;8.32;;
40757;SDS011;26462;47.384;19.218;2023-12-04T04:08:07;21.95;;;8.35;;
40757;SDS011;26462;47.384;19.218;2023-12-04T04:10:36;26.13;;;9.13;;
40757;SDS011;26462;47.384;19.218;2023-12-04T04:13:04;23.85;;;9.57;;
40757;SDS011;26462;47.384;19.218;2023-12-04T04:15:33;20.23;;;8.05;;
40757;SDS011;26462;47.384;19.218;2023-12-04T04:18:02;27.33;;;8.95;;
40757;SDS011;26462;47.384;19.218;2023-12-04T04:20:31;21.85;;;8.52;;
40757;SDS011;26462;47.384;19.218;2023-12-04T04:23:00;24.83;;;8.85;;
40757;SDS011;26462;47.384;19.218;2023-12-04T04:25:30;23.38;;;8.68;;
40757;SDS011;26462;47.384;19.218;2023-12-04T04:27:59;24.92;;;8.23;;
40757;SDS011;26462;47.384;19.218;2023-12-04T04:30:28;22.73;;;9.07;;
40757;SDS011;26462;47.384;19.218;2023-12-04T04:32:57;24.50;;;8.82;;
40757;SDS011;26462;47.384;19.218;2023-12-04T04:35:26;25.88;;;9.18;;
40757;SDS011;26462;47.384;19.218;2023-12-04T04:37:55;26.45;;;8.93;;
40757;SDS011;26462;47.384;19.218;2023-12-04T04:40:24;24.38;;;9.68;;
40757;SDS011;26462;47.384;19.218;2023-12-04T04:42:54;33.40;;;12.52;;
40757;SDS011;26462;47.384;19.218;2023-12-04T04:45:23;36.13;;;11.63;;
40757;SDS011;26462;47.384;19.218;2023-12-04T04:47:52;39.38;;;14.32;;
40757;SDS011;26462;47.384;19.218;2023-12-04T04:50:21;46.42;;;14.48;;
40757;SDS011;26462;47.384;19.218;2023-12-04T04:52:49;39.25;;;14.38;;
40757;SDS011;26462;47.384;19.218;2023-12-04T04:55:18;37.28;;;14.00;;
40757;SDS011;26462;47.384;19.218;2023-12-04T04:58:08;39.95;;;13.27;;
40757;SDS011;26462;47.384;19.218;2023-12-04T05:00:37;41.60;;;13.95;;
40757;SDS011;26462;47.384;19.218;2023-12-04T05:03:06;47.67;;;17.10;;
40757;SDS011;26462;47.384;19.218;2023-12-04T05:05:35;50.55;;;17.40;;
40757;SDS011;26462;47.384;19.218;2023-12-04T05:08:04;43.15;;;14.57;;
40757;SDS011;26462;47.384;19.218;2023-12-04T05:10:32;37.05;;;13.55;;
40757;SDS011;26462;47.384;19.218;2023-12-04T05:13:01;51.03;;;16.65;;
40757;SDS011;26462;47.384;19.218;2023-12-04T05:15:31;50.08;;;15.48;;
40757;SDS011;26462;47.384;19.218;2023-12-04T05:18:00;43.78;;;15.70;;
40757;SDS011;26462;47.384;19.218;2023-12-04T05:20:29;45.75;;;16.08;;
40757;SDS011;26462;47.384;19.218;2023-12-04T05:22:58;46.63;;;15.05;;
40757;SDS011;26462;47.384;19.218;2023-12-04T05:25:26;39.88;;;15.25;;
40757;SDS011;26462;47.384;19.218;2023-12-04T05:28:03;36.30;;;14.02;;
40757;SDS011;26462;47.384;19.218;2023-12-04T05:30:33;30.25;;;12.40;;
40757;SDS011;26462;47.384;19.218;2023-12-04T05:33:02;45.88;;;14.05;;
40757;SDS011;26462;47.384;19.218;2023-12-04T05:35:31;39.53;;;15.70;;
40757;SDS011;26462;47.384;19.218;2023-12-04T05:38:01;77.45;;;24.70;;
40757;SDS011;26462;47.384;19.218;2023-12-04T05:40:30;47.00;;;15.55;;
40757;SDS011;26462;47.384;19.218;2023-12-04T05:42:58;37.72;;;12.57;;
40757;SDS011;26462;47.384;19.218;2023-12-04T05:45:27;33.15;;;11.68;;
40757;SDS011;26462;47.384;19.218;2023-12-04T05:47:57;28.55;;;9.65;;
40757;SDS011;26462;47.384;19.218;2023-12-04T05:50:26;85.45;;;27.92;;
40757;SDS011;26462;47.384;19.218;2023-12-04T05:52:55;47.60;;;17.23;;
40757;SDS011;26462;47.384;19.218;2023-12-04T05:55:23;30.98;;;12.05;;
40757;SDS011;26462;47.384;19.218;2023-12-04T05:57:52;25.35;;;11.02;;
40757;SDS011;26462;47.384;19.218;2023-12-04T06:00:21;25.20;;;9.93;;
40757;SDS011;26462;47.384;19.218;2023-12-04T06:02:54;23.88;;;9.35;;
40757;SDS011;26462;47.384;19.218;2023-12-04T06:05:24;111.05;;;28.35;;
40757;SDS011;26462;47.384;19.218;2023-12-04T06:07:54;92.40;;;28.25;;
40757;SDS011;26462;47.384;19.218;2023-12-04T06:10:24;69.03;;;20.17;;
40757;SDS011;26462;47.384;19.218;2023-12-04T06:12:53;43.63;;;14.85;;
40757;SDS011;26462;47.384;19.218;2023-12-04T06:15:22;48.45;;;15.82;;
40757;SDS011;26462;47.384;19.218;2023-12-04T06:17:50;31.52;;;12.35;;
40757;SDS011;26462;47.384;19.218;2023-12-04T06:20:22;34.60;;;12.35;;
40757;SDS011;26462;47.384;19.218;2023-12-04T06:22:52;28.70;;;12.40;;
40757;SDS011;26462;47.384;19.218;2023-12-04T06:25:21;41.78;;;15.45;;
40757;SDS011;26462;47.384;19.218;2023-12-04T06:27:50;44.13;;;16.52;;
40757;SDS011;26462;47.384;19.218;2023-12-04T06:30:19;40.50;;;15.77;;
40757;SDS011;26462;47.384;19.218;2023-12-04T06:32:48;34.58;;;13.23;;
40757;SDS011;26462;47.384;19.218;2023-12-04T06:35:17;40.08;;;15.60;;
40757;SDS011;26462;47.384;19.218;2023-12-04T06:37:47;55.33;;;20.42;;
40757;SDS011;26462;47.384;19.218;2023-12-04T06:40:18;47.88;;;16.50;;
40757;SDS011;26462;47.384;19.218;2023-12-04T06:42:47;37.05;;;16.90;;
40757;SDS011;26462;47.384;19.218;2023-12-04T06:45:17;37.40;;;14.02;;
40757;SDS011;26462;47.384;19.218;2023-12-04T06:47:47;34.95;;;12.82;;
40757;SDS011;26462;47.384;19.218;2023-12-04T06:50:17;30.02;;;11.00;;
40757;SDS011;26462;47.384;19.218;2023-12-04T06:52:45;32.45;;;13.25;;
40757;SDS011;26462;47.384;19.218;2023-12-04T06:55:14;29.85;;;12.73;;
40757;SDS011;26462;47.384;19.218;2023-12-04T06:57:44;40.75;;;13.18;;
40757;SDS011;26462;47.384;19.218;2023-12-04T07:00:14;55.88;;;18.65;;
40757;SDS011;26462;47.384;19.218;2023-12-04T07:02:48;86.38;;;29.10;;
40757;SDS011;26462;47.384;19.218;2023-12-04T07:05:17;96.38;;;30.50;;
40757;SDS011;26462;47.384;19.218;2023-12-04T07:07:46;118.25;;;34.88;;
40757;SDS011;26462;47.384;19.218;2023-12-04T07:10:15;117.07;;;33.33;;
40757;SDS011;26462;47.384;19.218;2023-12-04T07:12:45;57.28;;;22.30;;
40757;SDS011;26462;47.384;19.218;2023-12-04T07:15:13;32.08;;;13.77;;
40757;SDS011;26462;47.384;19.218;2023-12-04T07:17:42;38.42;;;13.60;;
40757;SDS011;26462;47.384;19.218;2023-12-04T07:20:10;34.53;;;13.88;;
40757;SDS011;26462;47.384;19.218;2023-12-04T07:22:39;36.10;;;14.18;;
40757;SDS011;26462;47.384;19.218;2023-12-04T07:25:08;37.33;;;15.23;;
40757;SDS011;26462;47.384;19.218;2023-12-04T07:27:36;50.05;;;16.42;;
40757;SDS011;26462;47.384;19.218;2023-12-04T07:30:09;42.38;;;14.82;;
40757;SDS011;26462;47.384;19.218;2023-12-04T07:32:38;28.65;;;11.80;;
40757;SDS011;26462;47.384;19.218;2023-12-04T07:35:07;36.72;;;13.07;;
40757;SDS011;26462;47.384;19.218;2023-12-04T07:37:36;30.50;;;12.05;;
40757;SDS011;26462;47.384;19.218;2023-12-04T07:40:06;33.17;;;12.32;;
40757;SDS011;26462;47.384;19.218;2023-12-04T07:42:36;32.45;;;13.05;;
40757;SDS011;26462;47.384;19.218;2023-12-04T07:45:05;34.83;;;12.07;;
40757;SDS011;26462;47.384;19.218;2023-12-04T07:47:36;34.75;;;11.88;;
40757;SDS011;26462;47.384;19.218;2023-12-04T07:50:06;28.63;;;10.90;;
40757;SDS011;26462;47.384;19.218;2023-12-04T07:52:34;33.40;;;11.35;;
40757;SDS011;26462;47.384;19.218;2023-12-04T07:55:03;30.23;;;11.23;;
40757;SDS011;26462;47.384;19.218;2023-12-04T07:57:32;38.42;;;12.38;;
40757;SDS011;26462;47.384;19.218;2023-12-04T08:00:00;30.60;;;10.98;;
40757;SDS011;26462;47.384;19.218;2023-12-04T08:02:29;28.55;;;10.05;;
40757;SDS011;26462;47.384;19.218;2023-12-04T08:04:59;31.17;;;9.73;;
40757;SDS011;26462;47.384;19.218;2023-12-04T08:07:28;26.17;;;9.68;;
40757;SDS011;26462;47.384;19.218;2023-12-04T08:09:56;33.10;;;11.43;;
40757;SDS011;26462;47.384;19.218;2023-12-04T08:12:25;28.13;;;11.05;;
40757;SDS011;26462;47.384;19.218;2023-12-04T08:14:53;59.35;;;20.10;;
40757;SDS011;26462;47.384;19.218;2023-12-04T08:17:22;57.22;;;21.58;;
40757;SDS011;26462;47.384;19.218;2023-12-04T08:19:50;35.53;;;13.52;;
40757;SDS011;26462;47.384;19.218;2023-12-04T08:22:20;36.10;;;12.48;;
40757;SDS011;26462;47.384;19.218;2023-12-04T08:24:49;35.70;;;11.30;;
40757;SDS011;26462;47.384;19.218;2023-12-04T08:27:18;36.20;;;11.43;;
40757;SDS011;26462;47.384;19.218;2023-12-04T08:29:46;27.33;;;11.15;;
40757;SDS011;26462;47.384;19.218;2023-12-04T08:32:15;31.25;;;10.75;;
40757;SDS011;26462;47.384;19.218;2023-12-04T08:34:43;35.05;;;11.23;;
40757;SDS011;26462;47.384;19.218;2023-12-04T08:37:12;29.40;;;11.95;;
40757;SDS011;26462;47.384;19.218;2023-12-04T08:39:41;35.13;;;13.50;;
40757;SDS011;26462;47.384;19.218;2023-12-04T08:42:10;38.90;;;12.82;;
40757;SDS011;26462;47.384;19.218;2023-12-04T08:44:48;39.45;;;14.10;;
40757;SDS011;26462;47.384;19.218;2023-12-04T08:47:17;42.75;;;15.85;;
40757;SDS011;26462;47.384;19.218;2023-12-04T08:49:45;38.00;;;13.65;;
40757;SDS011;26462;47.384;19.218;2023-12-04T08:52:15;35.17;;;13.40;;
40757;SDS011;26462;47.384;19.218;2023-12-04T08:54:45;32.85;;;12.35;;
40757;SDS011;26462;47.384;19.218;2023-12-04T08:57:13;31.20;;;11.13;;
40757;SDS011;26462;47.384;19.218;2023-12-04T08:59:42;35.97;;;12.57;;
40757;SDS011;26462;47.384;19.218;2023-12-04T09:02:10;33.72;;;11.52;;
40757;SDS011;26462;47.384;19.218;2023-12-04T09:04:40;31.45;;;12.07;;
40757;SDS011;26462;47.384;19.218;2023-12-04T09:07:10;35.05;;;9.75;;
40757;SDS011;26462;47.384;19.218;2023-12-04T09:10:00;31.95;;;11.38;;
40757;SDS011;26462;47.384;19.218;2023-12-04T09:12:39;38.83;;;11.60;;
40757;SDS011;26462;47.384;19.218;2023-12-04T09:15:08;32.13;;;10.10;;
40757;SDS011;26462;47.384;19.218;2023-12-04T09:17:37;34.55;;;12.07;;
40757;SDS011;26462;47.384;19.218;2023-12-04T09:20:05;26.17;;;10.70;;
40757;SDS011;26462;47.384;19.218;2023-12-04T09:22:34;25.95;;;8.95;;
40757;SDS011;26462;47.384;19.218;2023-12-04T09:25:19;33.45;;;10.02;;
40757;SDS011;26462;47.384;19.218;2023-12-04T09:27:48;25.27;;;8.48;;
40757;SDS011;26462;47.384;19.218;2023-12-04T09:30:16;20.58;;;9.13;;
40757;SDS011;26462;47.384;19.218;2023-12-04T09:32:45;27.02;;;9.10;;
40757;SDS011;26462;47.384;19.218;2023-12-04T09:35:16;22.73;;;7.70;;
40757;SDS011;26462;47.384;19.218;2023-12-04T09:37:45;20.05;;;7.00;;
40757;SDS011;26462;47.384;19.218;2023-12-04T09:40:17;21.20;;;7.97;;
40757;SDS011;26462;47.384;19.218;2023-12-04T09:42:47;20.30;;;7.40;;
40757;SDS011;26462;47.384;19.218;2023-12-04T09:45:16;18.35;;;6.55;;
40757;SDS011;26462;47.384;19.218;2023-12-04T09:47:47;18.15;;;6.65;;
40757;SDS011;26462;47.384;19.218;2023-12-04T09:50:17;15.50;;;6.22;;
40757;SDS011;26462;47.384;19.218;2023-12-04T09:52:50;15.68;;;5.47;;
40757;SDS011;26462;47.384;19.218;2023-12-04T09:55:20;15.90;;;6.72;;
40757;SDS011;26462;47.384;19.218;2023-12-04T09:57:50;15.48;;;6.60;;
40757;SDS011;26462;47.384;19.218;2023-12-04T10:00:20;13.05;;;5.25;;
40757;SDS011;26462;47.384;19.218;2023-12-04T10:02:50;13.65;;;5.90;;
40757;SDS011;26462;47.384;19.218;2023-12-04T10:05:19;16.58;;;6.03;;
40757;SDS011;26462;47.384;19.218;2023-12-04T10:07:49;12.00;;;5.70;;
40757;SDS011;26462;47.384;19.218;2023-12-04T10:10:20;13.10;;;5.28;;
40757;SDS011;26462;47.384;19.218;2023-12-04T10:12:51;12.10;;;5.18;;
40757;SDS011;26462;47.384;19.218;2023-12-04T10:15:20;12.68;;;5.28;;
40757;SDS011;26462;47.384;19.218;2023-12-04T10:17:48;16.83;;;6.93;;
40757;SDS011;26462;47.384;19.218;2023-12-04T10:20:18;10.18;;;4.35;;
40757;SDS011;26462;47.384;19.218;2023-12-04T10:22:52;12.60;;;5.60;;
40757;SDS011;26462;47.384;19.218;2023-12-04T10:25:22;13.43;;;5.57;;
40757;SDS011;26462;47.384;19.218;2023-12-04T10:27:53;13.35;;;5.60;;
40757;SDS011;26462;47.384;19.218;2023-12-04T10:30:23;16.83;;;6.03;;
40757;SDS011;26462;47.384;19.218;2023-12-04T10:32:54;11.98;;;4.90;;
40757;SDS011;26462;47.384;19.218;2023-12-04T10:35:28;8.48;;;3.92;;
40757;SDS011;26462;47.384;19.218;2023-12-04T10:37:58;12.80;;;4.75;;
40757;SDS011;26462;47.384;19.218;2023-12-04T10:40:28;11.43;;;4.40;;
40757;SDS011;26462;47.384;19.218;2023-12-04T10:43:11;10.73;;;4.32;;
40757;SDS011;26462;47.384;19.218;2023-12-04T10:45:42;9.60;;;4.60;;
40757;SDS011;26462;47.384;19.218;2023-12-04T10:48:12;10.05;;;3.83;;
40757;SDS011;26462;47.384;19.218;2023-12-04T10:50:42;16.90;;;6.68;;
40757;SDS011;26462;47.384;19.218;2023-12-04T10:53:12;16.08;;;6.53;;
40757;SDS011;26462;47.384;19.218;2023-12-04T10:55:42;13.45;;;6.10;;
40757;SDS011;26462;47.384;19.218;2023-12-04T11:00:45;11.50;;;4.32;;
40757;SDS011;26462;47.384;19.218;2023-12-04T11:03:17;10.82;;;4.70;;
40757;SDS011;26462;47.384;19.218;2023-12-04T11:05:53;7.82;;;3.88;;
40757;SDS011;26462;47.384;19.218;2023-12-04T11:08:24;11.75;;;5.07;;
40757;SDS011;26462;47.384;19.218;2023-12-04T11:10:56;10.45;;;3.58;;
40757;SDS011;26462;47.384;19.218;2023-12-04T11:13:31;8.68;;;3.92;;
40757;SDS011;26462;47.384;19.218;2023-12-04T11:16:06;9.75;;;4.00;;
40757;SDS011;26462;47.384;19.218;2023-12-04T11:18:41;11.75;;;4.80;;
40757;SDS011;26462;47.384;19.218;2023-12-04T11:21:13;8.70;;;4.77;;
40757;SDS011;26462;47.384;19.218;2023-12-04T11:23:46;11.82;;;4.85;;
40757;SDS011;26462;47.384;19.218;2023-12-04T11:26:15;10.88;;;4.55;;
40757;SDS011;26462;47.384;19.218;2023-12-04T11:28:49;9.88;;;4.13;;
40757;SDS011;26462;47.384;19.218;2023-12-04T11:31:19;6.50;;;3.13;;
40757;SDS011;26462;47.384;19.218;2023-12-04T11:33:49;7.28;;;3.13;;
40757;SDS011;26462;47.384;19.218;2023-12-04T11:36:20;8.07;;;3.60;;
40757;SDS011;26462;47.384;19.218;2023-12-04T11:38:52;7.60;;;3.08;;
40757;SDS011;26462;47.384;19.218;2023-12-04T11:41:22;8.27;;;3.42;;
40757;SDS011;26462;47.384;19.218;2023-12-04T11:43:56;8.90;;;3.85;;
40757;SDS011;26462;47.384;19.218;2023-12-04T11:46:27;7.05;;;3.35;;
40757;SDS011;26462;47.384;19.218;2023-12-04T11:52:06;7.88;;;2.72;;
40757;SDS011;26462;47.384;19.218;2023-12-04T11:54:58;7.95;;;3.38;;
40757;SDS011;26462;47.384;19.218;2023-12-04T11:57:32;7.85;;;3.65;;
40757;SDS011;26462;47.384;19.218;2023-12-04T12:00:09;9.07;;;4.05;;
40757;SDS011;26462;47.384;19.218;2023-12-04T12:02:44;8.82;;;3.85;;
40757;SDS011;26462;47.384;19.218;2023-12-04T12:05:35;10.02;;;4.45;;
40757;SDS011;26462;47.384;19.218;2023-12-04T12:08:07;8.05;;;3.28;;
40757;SDS011;26462;47.384;19.218;2023-12-04T12:10:36;10.77;;;3.25;;
40757;SDS011;26462;47.384;19.218;2023-12-04T12:13:04;8.00;;;3.53;;
40757;SDS011;26462;47.384;19.218;2023-12-04T12:15:34;10.25;;;3.83;;
40757;SDS011;26462;47.384;19.218;2023-12-04T12:18:05;11.63;;;3.20;;
40757;SDS011;26462;47.384;19.218;2023-12-04T12:20:36;9.45;;;4.07;;
40757;SDS011;26462;47.384;19.218;2023-12-04T12:23:05;9.98;;;3.78;;
40757;SDS011;26462;47.384;19.218;2023-12-04T12:25:35;9.75;;;4.20;;
40757;SDS011;26462;47.384;19.218;2023-12-04T12:28:05;9.30;;;3.95;;
40757;SDS011;26462;47.384;19.218;2023-12-04T12:30:35;9.63;;;3.75;;
40757;SDS011;26462;47.384;19.218;2023-12-04T12:33:04;9.07;;;3.55;;
40757;SDS011;26462;47.384;19.218;2023-12-04T12:35:35;7.85;;;4.00;;
40757;SDS011;26462;47.384;19.218;2023-12-04T12:38:05;7.43;;;3.22;;
40757;SDS011;26462;47.384;19.218;2023-12-04T12:40:34;11.38;;;4.68;;
40757;SDS011;26462;47.384;19.218;2023-12-04T12:43:03;13.40;;;4.35;;
40757;SDS011;26462;47.384;19.218;2023-12-04T12:45:42;8.63;;;3.80;;
40757;SDS011;26462;47.384;19.218;2023-12-04T12:48:10;10.10;;;3.63;;
40757;SDS011;26462;47.384;19.218;2023-12-04T12:50:39;11.07;;;4.20;;
40757;SDS011;26462;47.384;19.218;2023-12-04T12:53:08;8.70;;;3.83;;
40757;SDS011;26462;47.384;19.218;2023-12-04T12:55:37;11.52;;;4.47;;
40757;SDS011;26462;47.384;19.218;2023-12-04T12:58:06;8.70;;;4.47;;
40757;SDS011;26462;47.384;19.218;2023-12-04T13:00:35;13.35;;;4.82;;
40757;SDS011;26462;47.384;19.218;2023-12-04T13:03:05;9.68;;;3.38;;
40757;SDS011;26462;47.384;19.218;2023-12-04T13:05:34;12.93;;;4.82;;
40757;SDS011;26462;47.384;19.218;2023-12-04T13:08:03;9.93;;;4.00;;
40757;SDS011;26462;47.384;19.218;2023-12-04T13:10:32;9.15;;;4.38;;
40757;SDS011;26462;47.384;19.218;2023-12-04T13:13:00;12.15;;;4.72;;
40757;SDS011;26462;47.384;19.218;2023-12-04T13:15:29;9.27;;;4.07;;
40757;SDS011;26462;47.384;19.218;2023-12-04T13:17:58;11.60;;;4.88;;
40757;SDS011;26462;47.384;19.218;2023-12-04T13:20:28;11.07;;;4.47;;
40757;SDS011;26462;47.384;19.218;2023-12-04T13:22:57;11.57;;;3.72;;
40757;SDS011;26462;47.384;19.218;2023-12-04T13:25:28;11.55;;;4.63;;
40757;SDS011;26462;47.384;19.218;2023-12-04T13:27:59;12.27;;;5.00;;
40757;SDS011;26462;47.384;19.218;2023-12-04T13:30:27;8.63;;;3.42;;
40757;SDS011;26462;47.384;19.218;2023-12-04T13:32:56;11.35;;;4.57;;
40757;SDS011;26462;47.384;19.218;2023-12-04T13:35:25;10.68;;;4.57;;
40757;SDS011;26462;47.384;19.218;2023-12-04T13:37:55;8.00;;;2.70;;
40757;SDS011;26462;47.384;19.218;2023-12-04T13:40:26;11.20;;;5.55;;
40757;SDS011;26462;47.384;19.218;2023-12-04T13:45:45;9.35;;;3.08;;
40757;SDS011;26462;47.384;19.218;2023-12-04T13:48:13;12.45;;;4.50;;
40757;SDS011;26462;47.384;19.218;2023-12-04T13:50:43;10.48;;;4.65;;
40757;SDS011;26462;47.384;19.218;2023-12-04T13:53:14;13.90;;;5.53;;
40757;SDS011;26462;47.384;19.218;2023-12-04T13:55:46;13.23;;;5.15;;
40757;SDS011;26462;47.384;19.218;2023-12-04T13:58:35;10.57;;;4.75;;
40757;SDS011;26462;47.384;19.218;2023-12-04T14:01:06;13.15;;;6.05;;
40757;SDS011;26462;47.384;19.218;2023-12-04T14:03:40;12.15;;;4.90;;
40757;SDS011;26462;47.384;19.218;2023-12-04T14:06:09;16.55;;;6.07;;
40757;SDS011;26462;47.384;19.218;2023-12-04T14:08:40;14.50;;;5.40;;
40757;SDS011;26462;47.384;19.218;2023-12-04T14:11:10;17.00;;;6.88;;
40757;SDS011;26462;47.384;19.218;2023-12-04T14:13:41;13.80;;;7.10;;
40757;SDS011;26462;47.384;19.218;2023-12-04T14:16:10;15.43;;;6.82;;
40757;SDS011;26462;47.384;19.218;2023-12-04T14:18:39;12.73;;;5.85;;
40757;SDS011;26462;47.384;19.218;2023-12-04T14:21:08;14.07;;;5.85;;
40757;SDS011;26462;47.384;19.218;2023-12-04T14:23:37;13.50;;;5.05;;
40757;SDS011;26462;47.384;19.218;2023-12-04T14:26:09;15.55;;;7.47;;
40757;SDS011;26462;47.384;19.218;2023-12-04T14:28:38;14.80;;;6.72;;
40757;SDS011;26462;47.384;19.218;2023-12-04T14:31:09;21.50;;;7.57;;
40757;SDS011;26462;47.384;19.218;2023-12-04T14:33:38;17.45;;;7.85;;
40757;SDS011;26462;47.384;19.218;2023-12-04T14:36:09;14.10;;;6.82;;
40757;SDS011;26462;47.384;19.218;2023-12-04T14:38:40;16.90;;;7.18;;
40757;SDS011;26462;47.384;19.218;2023-12-04T14:41:10;18.33;;;7.72;;
40757;SDS011;26462;47.384;19.218;2023-12-04T14:43:38;25.27;;;10.18;;